sensor_id;sensor_type;location;lat;lon;timestamp;pressure;altitude;pressure_sealevel;temperature;humidity
71057;BME280;58380;48.312;9.246;2022-11-20T07:21:50;93090.41;;;-0.74;100.00
71057;BME280;58380;48.312;9.246;2022-11-20T07:24:15;93081.00;;;-0.69;100.00
71057;BME280;58380;48.312;9.246;2022-11-20T07:26:40;93067.25;;;-0.69;100.00
71057;BME280;58380;48.312;9.246;2022-11-20T07:29:06;93069.25;;;-0.64;100.00
71057;BME280;58380;48.312;9.246;2022-11-20T07:31:31;92991.78;;;-1.13;100.00
71057;BME280;58380;48.312;9.246;2022-11-20T07:33:57;93041.13;;;-0.68;100.00
71057;BME280;58380;48.312;9.246;2022-11-20T07:36:22;93090.13;;;-0.39;100.00
71057;BME280;58380;48.312;9.246;2022-11-20T07:38:48;93080.38;;;-0.44;100.00
71057;BME280;58380;48.312;9.246;2022-11-20T07:41:13;93028.81;;;-0.79;100.00
71057;BME280;58380;48.312;9.246;2022-11-20T07:43:40;93054.44;;;-0.51;100.00
71057;BME280;58380;48.312;9.246;2022-11-20T07:46:05;92966.06;;;-1.01;100.00
71057;BME280;58380;48.312;9.246;2022-11-20T07:48:31;93028.94;;;-0.60;100.00
71057;BME280;58380;48.312;9.246;2022-11-20T07:50:56;92968.84;;;-1.02;100.00
71057;BME280;58380;48.312;9.246;2022-11-20T07:53:23;93023.94;;;-0.55;100.00
71057;BME280;58380;48.312;9.246;2022-11-20T07:55:51;92958.47;;;-0.89;100.00
71057;BME280;58380;48.312;9.246;2022-11-20T07:58:18;92966.44;;;-0.91;100.00
71057;BME280;58380;48.312;9.246;2022-11-20T08:00:45;92953.50;;;-0.91;100.00
71057;BME280;58380;48.312;9.246;2022-11-20T08:03:13;92965.84;;;-0.86;100.00
71057;BME280;58380;48.312;9.246;2022-11-20T08:05:38;93022.72;;;-0.39;100.00
71057;BME280;58380;48.312;9.246;2022-11-20T08:08:04;93035.63;;;-0.33;100.00
71057;BME280;58380;48.312;9.246;2022-11-20T08:10:30;93063.88;;;-0.05;100.00
71057;BME280;58380;48.312;9.246;2022-11-20T08:12:55;93096.13;;;0.13;100.00
71057;BME280;58380;48.312;9.246;2022-11-20T08:15:39;92968.91;;;-0.51;100.00
71057;BME280;58380;48.312;9.246;2022-11-20T08:18:08;92950.44;;;-0.29;100.00
71057;BME280;58380;48.312;9.246;2022-11-20T08:20:36;93012.66;;;0.16;100.00
71057;BME280;58380;48.312;9.246;2022-11-20T08:23:04;93098.31;;;0.79;100.00
71057;BME280;58380;48.312;9.246;2022-11-20T08:25:33;93077.81;;;0.71;100.00
71057;BME280;58380;48.312;9.246;2022-11-20T08:28:03;93083.88;;;0.90;100.00
71057;BME280;58380;48.312;9.246;2022-11-20T08:30:33;93126.84;;;1.18;100.00
71057;BME280;58380;48.312;9.246;2022-11-20T08:33:08;93135.59;;;1.23;100.00
71057;BME280;58380;48.312;9.246;2022-11-20T08:35:37;93129.53;;;1.29;100.00
71057;BME280;58380;48.312;9.246;2022-11-20T08:38:05;93114.41;;;1.20;100.00
71057;BME280;58380;48.312;9.246;2022-11-20T08:40:31;93101.75;;;1.05;100.00
71057;BME280;58380;48.312;9.246;2022-11-20T08:42:57;93127.19;;;1.21;100.00
71057;BME280;58380;48.312;9.246;2022-11-20T08:45:23;93143.50;;;1.35;100.00
71057;BME280;58380;48.312;9.246;2022-11-20T08:47:49;93126.41;;;1.46;100.00
71057;BME280;58380;48.312;9.246;2022-11-20T08:50:15;93051.00;;;1.02;100.00
71057;BME280;58380;48.312;9.246;2022-11-20T08:52:42;93091.13;;;1.32;100.00
71057;BME280;58380;48.312;9.246;2022-11-20T08:55:08;93093.56;;;1.26;100.00
71057;BME280;58380;48.312;9.246;2022-11-20T08:57:35;93106.97;;;1.48;100.00
71057;BME280;58380;48.312;9.246;2022-11-20T09:00:05;93137.78;;;1.70;100.00
71057;BME280;58380;48.312;9.246;2022-11-20T09:02:31;93115.72;;;1.54;100.00
71057;BME280;58380;48.312;9.246;2022-11-20T09:04:57;93087.38;;;1.46;100.00
71057;BME280;58380;48.312;9.246;2022-11-20T09:07:23;93116.25;;;1.63;100.00
71057;BME280;58380;48.312;9.246;2022-11-20T09:09:49;93131.13;;;1.74;100.00
71057;BME280;58380;48.312;9.246;2022-11-20T09:12:14;93127.66;;;1.62;100.00
71057;BME280;58380;48.312;9.246;2022-11-20T09:14:40;93110.75;;;1.53;100.00
71057;BME280;58380;48.312;9.246;2022-11-20T09:17:05;93127.00;;;1.66;100.00
71057;BME280;58380;48.312;9.246;2022-11-20T09:19:32;93119.44;;;1.65;100.00
71057;BME280;58380;48.312;9.246;2022-11-20T09:21:58;93091.94;;;1.50;100.00
71057;BME280;58380;48.312;9.246;2022-11-20T09:24:25;93138.44;;;1.84;100.00
71057;BME280;58380;48.312;9.246;2022-11-20T09:26:50;93132.44;;;1.83;100.00
71057;BME280;58380;48.312;9.246;2022-11-20T09:29:16;93135.47;;;1.99;100.00
71057;BME280;58380;48.312;9.246;2022-11-20T09:31:41;93094.50;;;1.76;100.00
71057;BME280;58380;48.312;9.246;2022-11-20T09:34:07;93111.47;;;1.97;100.00
71057;BME280;58380;48.312;9.246;2022-11-20T09:36:32;93126.97;;;2.10;100.00
71057;BME280;58380;48.312;9.246;2022-11-20T09:38:58;93121.91;;;2.15;100.00
71057;BME280;58380;48.312;9.246;2022-11-20T09:41:40;93121.22;;;2.20;100.00
71057;BME280;58380;48.312;9.246;2022-11-20T09:55:30;93103.44;;;2.16;100.00
71057;BME280;58380;48.312;9.246;2022-11-20T09:57:57;93100.78;;;2.05;100.00
71057;BME280;58380;48.312;9.246;2022-11-20T10:00:24;93138.88;;;2.36;100.00
71057;BME280;58380;48.312;9.246;2022-11-20T10:05:54;93114.41;;;2.37;100.00
71057;BME280;58380;48.312;9.246;2022-11-20T10:08:34;93110.22;;;2.36;100.00
71057;BME280;58380;48.312;9.246;2022-11-20T10:15:01;93113.88;;;2.47;100.00
71057;BME280;58380;48.312;9.246;2022-11-20T10:25:18;93131.63;;;2.98;100.00
71057;BME280;58380;48.312;9.246;2022-11-20T10:30:43;93114.88;;;3.18;97.97
71057;BME280;58380;48.312;9.246;2022-11-20T10:33:22;93115.78;;;3.23;97.75
71057;BME280;58380;48.312;9.246;2022-11-20T10:36:19;93132.38;;;3.41;97.49
71057;BME280;58380;48.312;9.246;2022-11-20T10:38:57;93145.31;;;3.48;96.32
71057;BME280;58380;48.312;9.246;2022-11-20T10:41:30;93146.31;;;3.46;96.00
71057;BME280;58380;48.312;9.246;2022-11-20T10:44:09;93099.94;;;3.25;94.22
71057;BME280;58380;48.312;9.246;2022-11-20T10:46:43;93124.22;;;3.37;94.87
71057;BME280;58380;48.312;9.246;2022-11-20T10:49:14;93105.38;;;3.23;95.03
71057;BME280;58380;48.312;9.246;2022-11-20T10:58:21;93132.59;;;3.51;94.83
71057;BME280;58380;48.312;9.246;2022-11-20T11:01:17;93134.22;;;3.52;96.54
71057;BME280;58380;48.312;9.246;2022-11-20T11:03:46;93089.13;;;3.21;93.11
71057;BME280;58380;48.312;9.246;2022-11-20T11:06:31;93131.25;;;3.49;92.61
71057;BME280;58380;48.312;9.246;2022-11-20T11:09:11;93110.03;;;3.33;93.12
71057;BME280;58380;48.312;9.246;2022-11-20T11:11:41;93114.78;;;3.36;93.58
71057;BME280;58380;48.312;9.246;2022-11-20T11:14:12;93094.34;;;3.21;93.45
71057;BME280;58380;48.312;9.246;2022-11-20T11:16:50;93094.94;;;3.23;93.55
71057;BME280;58380;48.312;9.246;2022-11-20T11:19:17;93109.13;;;3.28;93.48
71057;BME280;58380;48.312;9.246;2022-11-20T11:21:47;93035.72;;;2.89;93.29
71057;BME280;58380;48.312;9.246;2022-11-20T11:24:25;93105.97;;;3.37;93.78
71057;BME280;58380;48.312;9.246;2022-11-20T11:26:58;93114.13;;;3.41;93.05
71057;BME280;58380;48.312;9.246;2022-11-20T11:29:30;93091.75;;;3.21;93.09
71057;BME280;58380;48.312;9.246;2022-11-20T11:32:17;93099.50;;;3.40;93.40
71057;BME280;58380;48.312;9.246;2022-11-20T11:34:58;93074.28;;;3.22;92.37
71057;BME280;58380;48.312;9.246;2022-11-20T11:37:33;93079.50;;;3.22;92.02
71057;BME280;58380;48.312;9.246;2022-11-20T11:40:02;93041.28;;;2.92;92.81
71057;BME280;58380;48.312;9.246;2022-11-20T11:42:29;93116.72;;;3.41;94.34
71057;BME280;58380;48.312;9.246;2022-11-20T11:44:57;93086.22;;;3.30;93.31
71057;BME280;58380;48.312;9.246;2022-11-20T11:52:41;93085.88;;;3.50;91.31
71057;BME280;58380;48.312;9.246;2022-11-20T11:58:49;93057.94;;;3.27;91.03
71057;BME280;58380;48.312;9.246;2022-11-20T12:01:31;93079.53;;;3.45;91.41
71057;BME280;58380;48.312;9.246;2022-11-20T12:07:25;93075.44;;;3.50;91.26
71057;BME280;58380;48.312;9.246;2022-11-20T12:16:00;93026.34;;;3.35;88.80
71057;BME280;58380;48.312;9.246;2022-11-20T12:18:28;92987.09;;;3.30;87.79
71057;BME280;58380;48.312;9.246;2022-11-20T12:23:48;92984.91;;;3.38;87.68
71057;BME280;58380;48.312;9.246;2022-11-20T12:32:27;93051.31;;;4.35;83.97
71057;BME280;58380;48.312;9.246;2022-11-20T12:56:51;93013.34;;;4.04;78.16
71057;BME280;58380;48.312;9.246;2022-11-20T13:02:44;93050.38;;;4.01;80.82
71057;BME280;58380;48.312;9.246;2022-11-20T13:08:38;92984.75;;;3.57;80.39
71057;BME280;58380;48.312;9.246;2022-11-20T13:11:14;93033.44;;;4.15;79.61
71057;BME280;58380;48.312;9.246;2022-11-20T13:14:07;93038.16;;;4.30;79.29
71057;BME280;58380;48.312;9.246;2022-11-20T13:16:53;93012.78;;;4.42;78.32
71057;BME280;58380;48.312;9.246;2022-11-20T13:19:26;93028.47;;;4.59;78.01
71057;BME280;58380;48.312;9.246;2022-11-20T13:21:53;93021.56;;;4.53;75.73
71057;BME280;58380;48.312;9.246;2022-11-20T13:26:45;92952.06;;;4.23;76.16
71057;BME280;58380;48.312;9.246;2022-11-20T13:29:16;93026.91;;;4.75;75.60
71057;BME280;58380;48.312;9.246;2022-11-20T13:31:46;93020.09;;;4.74;76.57
71057;BME280;58380;48.312;9.246;2022-11-20T13:34:27;92990.69;;;4.50;77.43
71057;BME280;58380;48.312;9.246;2022-11-20T13:36:54;93028.97;;;4.73;78.06
71057;BME280;58380;48.312;9.246;2022-11-20T13:39:30;92991.06;;;4.42;76.22
71057;BME280;58380;48.312;9.246;2022-11-20T13:42:18;93019.59;;;4.60;76.64
71057;BME280;58380;48.312;9.246;2022-11-20T13:45:01;93018.72;;;4.71;76.78
71057;BME280;58380;48.312;9.246;2022-11-20T13:47:35;92999.97;;;4.58;76.83
71057;BME280;58380;48.312;9.246;2022-11-20T13:50:14;92963.31;;;4.24;77.55
71057;BME280;58380;48.312;9.246;2022-11-20T13:52:52;93017.69;;;4.56;76.51
71057;BME280;58380;48.312;9.246;2022-11-20T14:01:00;92949.31;;;3.84;77.20
71057;BME280;58380;48.312;9.246;2022-11-20T14:03:33;92987.03;;;4.05;77.86
71057;BME280;58380;48.312;9.246;2022-11-20T14:06:05;92944.81;;;3.68;78.39
71057;BME280;58380;48.312;9.246;2022-11-20T14:08:48;93001.72;;;3.95;78.89
71057;BME280;58380;48.312;9.246;2022-11-20T14:11:21;93011.09;;;4.07;78.95
71057;BME280;58380;48.312;9.246;2022-11-20T14:14:01;93002.69;;;4.05;79.59
71057;BME280;58380;48.312;9.246;2022-11-20T14:16:41;93006.19;;;4.11;78.36
71057;BME280;58380;48.312;9.246;2022-11-20T14:19:39;92931.22;;;3.54;78.91
71057;BME280;58380;48.312;9.246;2022-11-20T14:22:21;92895.13;;;3.22;80.09
71057;BME280;58380;48.312;9.246;2022-11-20T14:25:19;92862.63;;;3.01;80.72
71057;BME280;58380;48.312;9.246;2022-11-20T14:28:10;92915.63;;;3.42;81.13
71057;BME280;58380;48.312;9.246;2022-11-20T14:30:52;92840.78;;;2.91;81.18
71057;BME280;58380;48.312;9.246;2022-11-20T14:33:21;92855.59;;;3.02;82.38
71057;BME280;58380;48.312;9.246;2022-11-20T14:35:57;92956.00;;;3.80;81.33
71057;BME280;58380;48.312;9.246;2022-11-20T14:38:26;92979.31;;;3.99;81.18
71057;BME280;58380;48.312;9.246;2022-11-20T14:40:53;92976.13;;;3.97;81.06
71057;BME280;58380;48.312;9.246;2022-11-20T14:43:28;92850.72;;;3.17;81.75
71057;BME280;58380;48.312;9.246;2022-11-20T14:46:03;92927.81;;;3.65;82.12
71057;BME280;58380;48.312;9.246;2022-11-20T14:48:39;92835.00;;;2.89;80.83
71057;BME280;58380;48.312;9.246;2022-11-20T14:51:10;92942.91;;;3.52;81.36
71057;BME280;58380;48.312;9.246;2022-11-20T14:53:47;92970.59;;;3.64;83.19
71057;BME280;58380;48.312;9.246;2022-11-20T14:56:21;92935.69;;;3.42;82.10
71057;BME280;58380;48.312;9.246;2022-11-20T14:58:58;92971.78;;;3.74;83.24
71057;BME280;58380;48.312;9.246;2022-11-20T15:01:29;92972.38;;;3.76;83.34
71057;BME280;58380;48.312;9.246;2022-11-20T15:04:14;92948.22;;;3.57;83.81
71057;BME280;58380;48.312;9.246;2022-11-20T15:06:51;92973.41;;;3.63;83.64
71057;BME280;58380;48.312;9.246;2022-11-20T15:09:18;92949.28;;;3.56;83.85
71057;BME280;58380;48.312;9.246;2022-11-20T15:12:15;92946.56;;;3.51;82.35
71057;BME280;58380;48.312;9.246;2022-11-20T15:14:49;92948.69;;;3.54;82.03
71057;BME280;58380;48.312;9.246;2022-11-20T15:17:15;92885.41;;;3.06;82.10
71057;BME280;58380;48.312;9.246;2022-11-20T15:19:40;92929.09;;;3.39;81.33
71057;BME280;58380;48.312;9.246;2022-11-20T15:22:11;92956.63;;;3.59;82.36
71057;BME280;58380;48.312;9.246;2022-11-20T15:24:41;92911.34;;;3.24;82.76
71057;BME280;58380;48.312;9.246;2022-11-20T15:27:08;92893.81;;;3.08;82.59
71057;BME280;58380;48.312;9.246;2022-11-20T15:29:35;92875.22;;;3.05;83.10
71057;BME280;58380;48.312;9.246;2022-11-20T15:32:00;92918.81;;;3.33;82.78
71057;BME280;58380;48.312;9.246;2022-11-20T15:34:27;92932.84;;;3.43;83.24
71057;BME280;58380;48.312;9.246;2022-11-20T15:36:52;92911.09;;;3.26;83.27
71057;BME280;58380;48.312;9.246;2022-11-20T15:39:19;92872.72;;;3.10;83.77
71057;BME280;58380;48.312;9.246;2022-11-20T15:41:45;92921.44;;;3.33;84.15
71057;BME280;58380;48.312;9.246;2022-11-20T15:44:11;92896.97;;;3.10;84.48
71057;BME280;58380;48.312;9.246;2022-11-20T15:46:39;92906.25;;;3.18;84.72
71057;BME280;58380;48.312;9.246;2022-11-20T15:49:17;92868.41;;;2.92;85.51
71057;BME280;58380;48.312;9.246;2022-11-20T15:51:46;92919.19;;;3.24;85.39
71057;BME280;58380;48.312;9.246;2022-11-20T15:54:18;92897.28;;;3.14;85.90
71057;BME280;58380;48.312;9.246;2022-11-20T15:56:47;92855.53;;;2.73;85.80
71057;BME280;58380;48.312;9.246;2022-11-20T15:59:14;92915.34;;;3.03;86.41
71057;BME280;58380;48.312;9.246;2022-11-20T16:01:40;92884.31;;;2.90;86.49
71057;BME280;58380;48.312;9.246;2022-11-20T16:04:14;92914.09;;;2.94;87.22
71057;BME280;58380;48.312;9.246;2022-11-20T16:06:40;92906.53;;;2.93;87.45
71057;BME280;58380;48.312;9.246;2022-11-20T16:09:07;92887.03;;;2.72;87.48
71057;BME280;58380;48.312;9.246;2022-11-20T16:11:33;92904.25;;;2.85;87.61
71057;BME280;58380;48.312;9.246;2022-11-20T16:14:00;92857.34;;;2.49;87.89
71057;BME280;58380;48.312;9.246;2022-11-20T16:16:44;92894.41;;;2.63;88.19
71057;BME280;58380;48.312;9.246;2022-11-20T16:19:11;92916.63;;;2.77;88.64
71057;BME280;58380;48.312;9.246;2022-11-20T16:21:37;92924.44;;;2.77;88.76
71057;BME280;58380;48.312;9.246;2022-11-20T16:24:11;92919.44;;;2.76;88.74
71057;BME280;58380;48.312;9.246;2022-11-20T16:26:39;92870.16;;;2.39;88.68
71057;BME280;58380;48.312;9.246;2022-11-20T16:29:06;92921.72;;;2.72;88.85
71057;BME280;58380;48.312;9.246;2022-11-20T16:31:32;92898.72;;;2.57;89.13
71057;BME280;58380;48.312;9.246;2022-11-20T16:33:59;92919.56;;;2.81;88.97
71057;BME280;58380;48.312;9.246;2022-11-20T16:36:27;92905.94;;;2.79;89.16
71057;BME280;58380;48.312;9.246;2022-11-20T16:38:56;92884.19;;;2.62;88.96
71057;BME280;58380;48.312;9.246;2022-11-20T16:41:23;92915.91;;;2.82;89.12
71057;BME280;58380;48.312;9.246;2022-11-20T16:43:55;92902.66;;;2.84;89.04
71057;BME280;58380;48.312;9.246;2022-11-20T16:46:24;92884.41;;;2.72;89.20
71057;BME280;58380;48.312;9.246;2022-11-20T16:48:59;92908.66;;;2.84;89.43
71057;BME280;58380;48.312;9.246;2022-11-20T16:51:27;92900.53;;;2.80;89.65
71057;BME280;58380;48.312;9.246;2022-11-20T16:53:55;92819.78;;;2.33;89.92
71057;BME280;58380;48.312;9.246;2022-11-20T16:56:24;92895.19;;;2.75;90.38
71057;BME280;58380;48.312;9.246;2022-11-20T16:58:53;92847.19;;;2.48;90.49
71057;BME280;58380;48.312;9.246;2022-11-20T17:01:22;92896.44;;;2.73;90.39
71057;BME280;58380;48.312;9.246;2022-11-20T17:04:03;92890.44;;;2.72;90.28
71057;BME280;58380;48.312;9.246;2022-11-20T17:06:32;92879.22;;;2.72;90.54
71057;BME280;58380;48.312;9.246;2022-11-20T17:09:00;92880.91;;;2.78;90.32
71057;BME280;58380;48.312;9.246;2022-11-20T17:11:26;92842.97;;;2.47;89.88
71057;BME280;58380;48.312;9.246;2022-11-20T17:13:54;92874.34;;;2.75;90.46
71057;BME280;58380;48.312;9.246;2022-11-20T17:16:22;92867.31;;;2.64;90.57
71057;BME280;58380;48.312;9.246;2022-11-20T17:18:49;92835.16;;;2.47;89.67
71057;BME280;58380;48.312;9.246;2022-11-20T17:21:17;92878.78;;;2.75;89.84
71057;BME280;58380;48.312;9.246;2022-11-20T17:23:44;92870.50;;;2.66;89.58
71057;BME280;58380;48.312;9.246;2022-11-20T17:26:13;92881.69;;;2.67;89.80
71057;BME280;58380;48.312;9.246;2022-11-20T17:28:42;92879.91;;;2.67;90.03
71057;BME280;58380;48.312;9.246;2022-11-20T17:31:12;92877.75;;;2.64;90.07
71057;BME280;58380;48.312;9.246;2022-11-20T17:33:40;92835.72;;;2.37;90.21
71057;BME280;58380;48.312;9.246;2022-11-20T17:36:08;92845.81;;;2.45;90.18
71057;BME280;58380;48.312;9.246;2022-11-20T17:38:36;92883.19;;;2.63;89.84
71057;BME280;58380;48.312;9.246;2022-11-20T17:41:10;92866.31;;;2.53;89.87
71057;BME280;58380;48.312;9.246;2022-11-20T17:43:38;92874.69;;;2.55;89.84
71057;BME280;58380;48.312;9.246;2022-11-20T17:48:36;92865.53;;;2.53;89.63
71057;BME280;58380;48.312;9.246;2022-11-20T17:51:04;92881.25;;;2.58;89.35
71057;BME280;58380;48.312;9.246;2022-11-20T17:53:36;92883.09;;;2.57;89.67
71057;BME280;58380;48.312;9.246;2022-11-20T17:56:03;92875.84;;;2.48;89.89
71057;BME280;58380;48.312;9.246;2022-11-20T17:58:47;92858.25;;;2.31;89.96
71057;BME280;58380;48.312;9.246;2022-11-20T18:01:14;92859.31;;;2.42;89.79
71057;BME280;58380;48.312;9.246;2022-11-20T18:03:39;92845.91;;;2.38;89.34
71057;BME280;58380;48.312;9.246;2022-11-20T18:06:19;92884.31;;;2.43;89.04
71057;BME280;58380;48.312;9.246;2022-11-20T18:08:48;92871.97;;;2.50;89.57
71057;BME280;58380;48.312;9.246;2022-11-20T18:13:51;92857.13;;;2.39;89.52
71057;BME280;58380;48.312;9.246;2022-11-20T18:16:39;92855.09;;;2.41;89.27
71057;BME280;58380;48.312;9.246;2022-11-20T18:19:08;92824.88;;;2.28;90.01
71057;BME280;58380;48.312;9.246;2022-11-20T18:21:38;92861.78;;;2.49;89.88
71057;BME280;58380;48.312;9.246;2022-11-20T18:24:04;92830.41;;;2.32;89.89
71057;BME280;58380;48.312;9.246;2022-11-20T18:26:30;92848.63;;;2.44;90.01
71057;BME280;58380;48.312;9.246;2022-11-20T18:28:56;92854.06;;;2.54;89.98
71057;BME280;58380;48.312;9.246;2022-11-20T18:31:21;92817.16;;;2.45;90.35
71057;BME280;58380;48.312;9.246;2022-11-20T18:33:47;92818.84;;;2.51;90.29
71057;BME280;58380;48.312;9.246;2022-11-20T18:36:25;92826.88;;;2.62;89.70
71057;BME280;58380;48.312;9.246;2022-11-20T18:38:54;92780.91;;;2.32;89.79
71057;BME280;58380;48.312;9.246;2022-11-20T18:41:24;92812.94;;;2.68;89.52
71057;BME280;58380;48.312;9.246;2022-11-20T18:44:18;92812.28;;;2.72;89.15
71057;BME280;58380;48.312;9.246;2022-11-20T18:47:08;92814.06;;;2.72;88.29
71057;BME280;58380;48.312;9.246;2022-11-20T18:49:35;92798.13;;;2.56;87.85
71057;BME280;58380;48.312;9.246;2022-11-20T18:52:01;92781.03;;;2.49;87.84
71057;BME280;58380;48.312;9.246;2022-11-20T18:54:26;92817.72;;;2.59;88.28
71057;BME280;58380;48.312;9.246;2022-11-20T18:56:52;92782.53;;;2.45;88.65
71057;BME280;58380;48.312;9.246;2022-11-20T18:59:18;92790.75;;;2.53;88.74
71057;BME280;58380;48.312;9.246;2022-11-20T19:01:48;92794.25;;;2.59;88.79
71057;BME280;58380;48.312;9.246;2022-11-20T19:04:15;92784.66;;;2.48;89.67
71057;BME280;58380;48.312;9.246;2022-11-20T19:06:44;92804.34;;;2.55;89.51
71057;BME280;58380;48.312;9.246;2022-11-20T19:09:13;92812.50;;;2.59;89.95
71057;BME280;58380;48.312;9.246;2022-11-20T19:11:39;92804.94;;;2.57;91.69
71057;BME280;58380;48.312;9.246;2022-11-20T19:14:05;92779.00;;;2.39;90.03
71057;BME280;58380;48.312;9.246;2022-11-20T19:16:31;92695.19;;;1.78;90.75
71057;BME280;58380;48.312;9.246;2022-11-20T19:19:01;92713.81;;;1.87;91.01
71057;BME280;58380;48.312;9.246;2022-11-20T19:21:28;92733.09;;;1.98;91.74
71057;BME280;58380;48.312;9.246;2022-11-20T19:23:55;92758.09;;;2.10;92.36
71057;BME280;58380;48.312;9.246;2022-11-20T19:26:22;92806.28;;;2.36;93.01
71057;BME280;58380;48.312;9.246;2022-11-20T19:28:49;92756.50;;;1.98;94.00
71057;BME280;58380;48.312;9.246;2022-11-20T19:33:40;92818.75;;;2.11;95.58
71057;BME280;58380;48.312;9.246;2022-11-20T19:36:15;92819.63;;;1.93;97.39
71057;BME280;58380;48.312;9.246;2022-11-20T19:38:45;92806.69;;;1.75;97.86
71057;BME280;58380;48.312;9.246;2022-11-20T19:41:13;92769.91;;;1.47;98.44
71057;BME280;58380;48.312;9.246;2022-11-20T19:43:39;92812.22;;;1.66;99.13
71057;BME280;58380;48.312;9.246;2022-11-20T19:46:05;92771.44;;;1.37;99.83
71057;BME280;58380;48.312;9.246;2022-11-20T19:48:33;92715.59;;;0.97;99.98
71057;BME280;58380;48.312;9.246;2022-11-20T19:51:20;92815.47;;;1.50;100.00
71057;BME280;58380;48.312;9.246;2022-11-20T19:53:47;92793.00;;;1.25;100.00
71057;BME280;58380;48.312;9.246;2022-11-20T19:56:13;92796.59;;;1.24;100.00
71057;BME280;58380;48.312;9.246;2022-11-20T19:58:39;92751.56;;;1.00;100.00
71057;BME280;58380;48.312;9.246;2022-11-20T20:01:20;92806.03;;;1.37;100.00
71057;BME280;58380;48.312;9.246;2022-11-20T20:03:47;92799.13;;;1.31;100.00
71057;BME280;58380;48.312;9.246;2022-11-20T20:06:17;92771.31;;;1.01;100.00
71057;BME280;58380;48.312;9.246;2022-11-20T20:08:44;92783.22;;;1.09;100.00
71057;BME280;58380;48.312;9.246;2022-11-20T20:11:18;92800.22;;;1.23;100.00
71057;BME280;58380;48.312;9.246;2022-11-20T20:13:46;92798.34;;;1.31;100.00
71057;BME280;58380;48.312;9.246;2022-11-20T20:16:13;92703.44;;;0.68;100.00
71057;BME280;58380;48.312;9.246;2022-11-20T20:18:40;92762.31;;;1.04;100.00
71057;BME280;58380;48.312;9.246;2022-11-20T20:21:09;92765.59;;;1.11;100.00
71057;BME280;58380;48.312;9.246;2022-11-20T20:23:36;92799.34;;;1.29;100.00
71057;BME280;58380;48.312;9.246;2022-11-20T20:26:03;92799.34;;;1.29;100.00
71057;BME280;58380;48.312;9.246;2022-11-20T20:28:31;92757.56;;;1.01;100.00
71057;BME280;58380;48.312;9.246;2022-11-20T20:31:05;92788.81;;;1.24;100.00
71057;BME280;58380;48.312;9.246;2022-11-20T20:33:36;92797.88;;;1.34;100.00
71057;BME280;58380;48.312;9.246;2022-11-20T20:36:04;92745.34;;;1.01;100.00
71057;BME280;58380;48.312;9.246;2022-11-20T20:38:31;92788.16;;;1.29;100.00
71057;BME280;58380;48.312;9.246;2022-11-20T20:40:57;92742.16;;;0.99;100.00
71057;BME280;58380;48.312;9.246;2022-11-20T20:43:22;92788.38;;;1.27;100.00
71057;BME280;58380;48.312;9.246;2022-11-20T20:45:49;92763.00;;;1.11;100.00
71057;BME280;58380;48.312;9.246;2022-11-20T20:48:18;92791.97;;;1.26;100.00
71057;BME280;58380;48.312;9.246;2022-11-20T20:50:59;92792.78;;;1.27;100.00
71057;BME280;58380;48.312;9.246;2022-11-20T20:53:25;92775.34;;;1.16;100.00
71057;BME280;58380;48.312;9.246;2022-11-20T20:55:59;92784.13;;;1.15;100.00
71057;BME280;58380;48.312;9.246;2022-11-20T20:58:26;92767.72;;;1.02;100.00
71057;BME280;58380;48.312;9.246;2022-11-20T21:00:54;92795.38;;;1.27;100.00
71057;BME280;58380;48.312;9.246;2022-11-20T21:03:25;92805.03;;;1.38;100.00
71057;BME280;58380;48.312;9.246;2022-11-20T21:05:54;92815.13;;;1.46;100.00
71057;BME280;58380;48.312;9.246;2022-11-20T21:08:21;92804.50;;;1.48;100.00
71057;BME280;58380;48.312;9.246;2022-11-20T21:10:53;92827.91;;;1.60;100.00
71057;BME280;58380;48.312;9.246;2022-11-20T21:13:24;92824.66;;;1.53;100.00
71057;BME280;58380;48.312;9.246;2022-11-20T21:15:52;92834.97;;;1.71;100.00
71057;BME280;58380;48.312;9.246;2022-11-20T21:18:19;92819.00;;;1.56;100.00
71057;BME280;58380;48.312;9.246;2022-11-20T21:20:46;92796.69;;;1.48;100.00
71057;BME280;58380;48.312;9.246;2022-11-20T21:23:31;92821.19;;;1.70;100.00
71057;BME280;58380;48.312;9.246;2022-11-20T21:26:03;92811.88;;;1.63;100.00
71057;BME280;58380;48.312;9.246;2022-11-20T21:28:32;92837.63;;;1.83;100.00
71057;BME280;58380;48.312;9.246;2022-11-20T21:31:09;92804.16;;;1.56;100.00
71057;BME280;58380;48.312;9.246;2022-11-20T21:33:45;92828.31;;;1.75;100.00
71057;BME280;58380;48.312;9.246;2022-11-20T21:36:14;92840.31;;;1.76;100.00
